Spirit Of Vi — CFL2070 — position and weather

sailwx.info

Track history (hours):
 
Tides and Currents Weather Stations Pressure Air Temp Water Temp Dewpoint Dewpoint Depression Visibility Wind Speed Wind Dir Waves Ship Positions

Spirit Of Vi

Last reported at 2018-Sep-18 19:19 UTC. Time now 2018-Sep-22 07:59 UTC.
Position N 26°31' W 114°56'.

Length 168 m; draft 5 m.

Type: Ship. MMSI: 316001269.

Date/timePositionNaut miles runAvg speedWind from/ knotsBaromVisibWave heightAir tempDewpointWater temp
2018-Sep-18 19:19N 26°31' W 114°56'516.7
2018-Sep-18 19:02N 26°34' W 114°59'016.2
2018-Sep-18 19:00N 26°35' W 114°59'1016.8
2018-Sep-18 18:24N 26°43' W 115°06'616.9
2018-Sep-18 18:03N 26°47' W 115°10'116.6
2018-Sep-18 18:00N 26°48' W 115°11'916.6
2018-Sep-18 17:29N 26°55' W 115°17'716.3
2018-Sep-18 17:03N 27°01' W 115°21'116.5
2018-Sep-18 17:00N 27°01' W 115°22'816.4
2018-Sep-18 16:30N 27°08' W 115°27'716.4
2018-Sep-18 16:03N 27°14' W 115°32'116.8
2018-Sep-18 16:00N 27°15' W 115°32'816.3
2018-Sep-18 15:30N 27°21' W 115°38'716.6
2018-Sep-18 15:03N 27°28' W 115°42'116.4
2018-Sep-18 15:00N 27°28' W 115°43'816.7
2018-Sep-18 14:30N 27°35' W 115°48'916.6
2018-Sep-18 13:58N 27°43' W 115°54'816.5
2018-Sep-18 13:29N 27°49' W 115°59'716.6
2018-Sep-18 13:03N 27°55' W 116°04'116.5
2018-Sep-18 12:59N 27°56' W 116°04'816.7
2018-Sep-18 12:29N 28°03' W 116°10'916.5
2018-Sep-18 11:57N 28°10' W 116°15'716.6
2018-Sep-18 11:30N 28°16' W 116°20'816.3
2018-Sep-18 11:02N 28°22' W 116°25'115.9
2018-Sep-18 11:00N 28°23' W 116°25'816.3
2018-Sep-18 10:30N 28°29' W 116°31'1116.5
2018-Sep-18 09:50N 28°39' W 116°38'616.5
2018-Sep-18 09:30N 28°43' W 116°41'716.6
2018-Sep-18 09:03N 28°49' W 116°46'116.3
2018-Sep-18 09:00N 28°50' W 116°47'816.6
2018-Sep-18 08:30N 28°57' W 116°52'716.7
2018-Sep-18 08:03N 29°03' W 116°57'116.3
2018-Sep-18 08:01N 29°04' W 116°57'814.7
2018-Sep-18 07:30N 29°10' W 117°02'512.4
2018-Sep-18 07:03N 29°15' W 117°05'117.3
2018-Sep-18 07:00N 29°15' W 117°06'1117.1
2018-Sep-18 06:22N 29°24' W 117°13'517.2
2018-Sep-18 06:03N 29°29' W 117°17'117.2
2018-Sep-18 06:00N 29°29' W 117°17'917.1
2018-Sep-18 05:30N 29°36' W 117°23'817.1
2018-Sep-18 05:03N 29°42' W 117°28'117.1
2018-Sep-18 05:00N 29°43' W 117°29'817.0
2018-Sep-18 04:30N 29°50' W 117°35'816.8
2018-Sep-18 04:03N 29°56' W 117°40'116.4
2018-Sep-18 04:01N 29°56' W 117°41'816.9
2018-Sep-18 03:30N 30°03' W 117°46'817.0
2018-Sep-18 03:03N 30°10' W 117°51'116.8
2018-Sep-18 03:01N 30°10' W 117°52'816.9
2018-Sep-18 02:31N 30°17' W 117°57'816.9
2018-Sep-18 02:03N 30°24' W 118°02'117.1
2018-Sep-18 02:01N 30°24' W 118°03'816.8
2018-Sep-18 01:31N 30°31' W 118°08'716.6
2018-Sep-18 01:03N 30°37' W 118°13'116.2
2018-Sep-18 01:01N 30°38' W 118°14'816.8
2018-Sep-18 00:30N 30°45' W 118°19'816.9
2018-Sep-18 00:03N 30°51' W 118°24'116.4
2018-Sep-18 00:01N 30°52' W 118°25'816.7
2018-Sep-17 23:31N 30°59' W 118°31'716.6
2018-Sep-17 23:04N 31°05' W 118°35'116.4
2018-Sep-17 23:00N 31°06' W 118°36'816.8
2018-Sep-17 22:31N 31°13' W 118°42'816.8
2018-Sep-17 22:03N 31°19' W 118°47'116.5
2018-Sep-17 22:01N 31°19' W 118°47'816.4
2018-Sep-17 21:30N 31°26' W 118°53'716.4
2018-Sep-17 21:03N 31°32' W 118°58'116.3
2018-Sep-17 21:00N 31°33' W 118°58'816.5
2018-Sep-17 20:30N 31°40' W 119°04'716.7
2018-Sep-17 20:03N 31°46' W 119°09'116.9
2018-Sep-17 20:00N 31°46' W 119°10'816.6
2018-Sep-17 19:31N 31°53' W 119°15'716.6
2018-Sep-17 19:04N 31°59' W 119°20'116.7
2018-Sep-17 19:01N 32°00' W 119°21'917.0
2018-Sep-17 18:30N 32°07' W 119°26'816.9
2018-Sep-17 18:04N 32°14' W 119°31'116.9
2018-Sep-17 18:00N 32°14' W 119°31'816.9
2018-Sep-17 17:30N 32°22' W 119°36'716.7
2018-Sep-17 17:03N 32°27' W 119°42'116.8
2018-Sep-17 17:01N 32°28' W 119°43'916.8
2018-Sep-17 16:29N 32°35' W 119°50'716.9
2018-Sep-17 16:03N 32°40' W 119°55'116.7
2018-Sep-17 16:00N 32°41' W 119°56'1116.8
2018-Sep-17 15:23N 32°48' W 120°05'516.4
2018-Sep-17 15:03N 32°52' W 120°09'115.9
2018-Sep-17 15:00N 32°53' W 120°08'714.0
2018-Sep-17 14:29N 33°00' W 120°09'816.6
2018-Sep-17 14:00N 33°07' W 120°14'816.8
2018-Sep-17 13:30N 33°14' W 120°19'816.9
2018-Sep-17 13:03N 33°21' W 120°24'117.1
2018-Sep-17 13:00N 33°21' W 120°24'816.8
2018-Sep-17 12:30N 33°28' W 120°31'816.9
2018-Sep-17 12:03N 33°34' W 120°36'116.7
2018-Sep-17 12:01N 33°35' W 120°37'816.9
2018-Sep-17 11:31N 33°41' W 120°43'816.7
2018-Sep-17 11:03N 33°49' W 120°45'117.2
2018-Sep-17 11:00N 33°50' W 120°45'917.3
2018-Sep-17 10:31N 33°57' W 120°51'817.6
2018-Sep-17 10:03N 34°04' W 120°56'117.1
2018-Sep-17 10:00N 34°04' W 120°56'917.2
2018-Sep-17 09:30N 34°12' W 121°02'817.2
2018-Sep-17 09:03N 34°18' W 121°07'117.4
2018-Sep-17 09:01N 34°19' W 121°07'917.1
2018-Sep-17 08:30N 34°26' W 121°13'817.2
2018-Sep-17 08:03N 34°33' W 121°18'117.1
2018-Sep-17 08:01N 34°34' W 121°18'917.0
2018-Sep-17 07:31N 34°41' W 121°24'816.9
2018-Sep-17 07:03N 34°47' W 121°29'116.9
2018-Sep-17 07:00N 34°48' W 121°29'917.2
2018-Sep-17 06:30N 34°55' W 121°35'817.1
2018-Sep-17 06:03N 35°02' W 121°40'117.0
2018-Sep-17 06:00N 35°02' W 121°41'816.9
2018-Sep-17 05:30N 35°09' W 121°47'817.3
2018-Sep-17 05:03N 35°16' W 121°51'117.4
2018-Sep-17 05:00N 35°17' W 121°52'917.2
2018-Sep-17 04:30N 35°24' W 121°57'817.1
2018-Sep-17 04:03N 35°31' W 122°02'117.5
2018-Sep-17 04:01N 35°32' W 122°03'917.2
2018-Sep-17 03:30N 35°39' W 122°08'817.3
2018-Sep-17 03:03N 35°46' W 122°13'117.2
2018-Sep-17 03:00N 35°46' W 122°14'917.3
2018-Sep-17 02:30N 35°54' W 122°19'817.4
2018-Sep-17 02:03N 36°00' W 122°24'117.5
2018-Sep-17 02:00N 36°01' W 122°25'917.5
2018-Sep-17 01:30N 36°08' W 122°31'818.3
2018-Sep-17 01:03N 36°15' W 122°37'118.0
2018-Sep-17 01:00N 36°16' W 122°37'917.8
2018-Sep-17 00:30N 36°23' W 122°43'817.6
2018-Sep-17 00:03N 36°30' W 122°48'117.6
2018-Sep-17 00:01N 36°31' W 122°48'917.2
2018-Sep-16 23:30N 36°38' W 122°54'917.4
2018-Sep-16 22:59N 36°46' W 122°60'917.5
2018-Sep-16 22:29N 36°54' W 123°06'717.1
2018-Sep-16 22:03N 36°60' W 123°11'117.1
2018-Sep-16 22:00N 37°01' W 123°11'817.0
2018-Sep-16 21:30N 37°08' W 123°17'816.9
2018-Sep-16 21:03N 37°14' W 123°22'116.6
2018-Sep-16 21:00N 37°15' W 123°23'916.8
2018-Sep-16 20:29N 37°22' W 123°28'816.8
2018-Sep-16 20:02N 37°29' W 123°33'116.9
2018-Sep-16 20:00N 37°29' W 123°34'1016.5
2018-Sep-16 19:25N 37°38' W 123°40'616.5
2018-Sep-16 19:03N 37°43' W 123°43'116.9
2018-Sep-16 18:58N 37°44' W 123°44'816.9
2018-Sep-16 18:30N 37°51' W 123°49'816.9
2018-Sep-16 18:03N 37°57' W 123°54'117.4
2018-Sep-16 18:00N 37°58' W 123°55'917.6
2018-Sep-16 17:30N 38°05' W 124°01'817.5
2018-Sep-16 17:03N 38°12' W 124°06'117.1
2018-Sep-16 17:00N 38°13' W 124°07'816.6
2018-Sep-16 16:30N 38°20' W 124°12'43316.5
2018-Sep-15 14:12N 45°30' W 125°16'0 0.4
2018-Sep-15 13:54N 45°30' W 125°16'716.2
2018-Sep-15 13:29N 45°37' W 125°16'816.5
2018-Sep-15 13:00N 45°45' W 125°16'1116.3
2018-Sep-15 12:18N 45°56' W 125°17'415.9
2018-Sep-15 12:04N 46°00' W 125°16'116.2
2018-Sep-15 12:00N 46°01' W 125°16'815.9
2018-Sep-15 11:30N 46°09' W 125°16'715.8
2018-Sep-15 11:03N 46°16' W 125°17'115.9
2018-Sep-15 11:00N 46°17' W 125°17'815.6
2018-Sep-15 10:30N 46°25' W 125°16'715.7
2018-Sep-15 10:03N 46°32' W 125°16'115.8
2018-Sep-15 10:00N 46°32' W 125°16'815.9
2018-Sep-15 09:30N 46°40' W 125°16'715.7
2018-Sep-15 09:03N 46°48' W 125°16'115.7
2018-Sep-15 09:00N 46°48' W 125°16'815.8
2018-Sep-15 08:30N 46°56' W 125°16'7015.9
2018-Sep-15 04:04N 48°07' W 125°12'116.5
2018-Sep-15 04:02N 48°07' W 125°11'716.6
2018-Sep-15 03:35N 48°14' W 125°10'216.5
2018-Sep-15 03:28N 48°16' W 125°09'716.1
2018-Sep-15 03:03N 48°23' W 125°08'115.4
2018-Sep-15 03:00N 48°24' W 125°08'815.5
2018-Sep-15 02:30N 48°30' W 125°01'614.4
2018-Sep-15 02:03N 48°30' W 124°51'115.4
2018-Sep-15 02:00N 48°30' W 124°50'815.6
2018-Sep-15 01:30N 48°29' W 124°38'715.7
2018-Sep-15 01:03N 48°26' W 124°28'115.7
2018-Sep-15 01:00N 48°26' W 124°27'815.4
2018-Sep-15 00:31N 48°23' W 124°17'715.5
2018-Sep-15 00:03N 48°20' W 124°07'116.0
2018-Sep-15 00:00N 48°20' W 124°06'815.5
2018-Sep-14 23:30N 48°17' W 123°55'1616.4
2018-Sep-14 22:31N 48°16' W 123°31'115.8
2018-Sep-14 22:29N 48°16' W 123°30'715.4
2018-Sep-14 22:03N 48°22' W 123°25'115.2
2018-Sep-14 22:00N 48°23' W 123°25'612.7
2018-Sep-14 21:31N 48°24' W 123°15'714.8
2018-Sep-14 21:04N 48°30' W 123°13'117.3
2018-Sep-14 21:01N 48°31' W 123°13'918.1
2018-Sep-14 20:31N 48°40' W 123°15'817.5
2018-Sep-14 20:03N 48°45' W 123°06'119.5
2018-Sep-14 20:00N 48°45' W 123°05'713.6
2018-Sep-14 19:30N 48°52' W 123°06'819.0
2018-Sep-14 19:04N 48°58' W 123°15'118.7
2018-Sep-14 19:00N 48°59' W 123°16'714.4
2018-Sep-14 18:30N 49°05' W 123°22'613.2
2018-Sep-14 18:03N 49°08' W 123°14'114.7
2018-Sep-14 18:00N 49°08' W 123°13'510.0
2018-Sep-14 17:29N 49°07' W 123°05'0 0.6
2018-Sep-14 17:02N 49°07' W 123°05'0 0.1
2018-Sep-14 16:59N 49°07' W 123°05'0 0.0
2018-Sep-14 16:29N 49°07' W 123°05'0 0.0
2018-Sep-14 16:02N 49°07' W 123°05'0 0.0
2018-Sep-14 15:59N 49°07' W 123°05'0 0.0
2018-Sep-14 15:29N 49°07' W 123°05'0 0.0
2018-Sep-14 15:02N 49°07' W 123°05'0 0.0
2018-Sep-14 14:59N 49°07' W 123°05'0 0.0
2018-Sep-14 14:29N 49°07' W 123°05'0 0.0
2018-Sep-14 13:59N 49°07' W 123°05'0 0.0
2018-Sep-14 13:29N 49°07' W 123°05'0 0.0
2018-Sep-14 13:02N 49°07' W 123°05'0 0.0
2018-Sep-14 12:59N 49°07' W 123°05'0 0.0
2018-Sep-14 12:29N 49°07' W 123°05'0 0.0
2018-Sep-14 12:02N 49°07' W 123°05'0 0.0
2018-Sep-14 11:59N 49°07' W 123°05'0 0.0
2018-Sep-14 11:29N 49°07' W 123°05'0 0.0
2018-Sep-14 11:02N 49°07' W 123°05'0 0.0
2018-Sep-14 10:59N 49°07' W 123°05'0 0.0
2018-Sep-14 10:29N 49°07' W 123°05'0 0.0
2018-Sep-14 10:02N 49°07' W 123°05'0 0.0
2018-Sep-14 09:59N 49°07' W 123°05'0 0.0
2018-Sep-14 09:29N 49°07' W 123°05'0 0.0
2018-Sep-14 09:02N 49°07' W 123°05'0 0.0
2018-Sep-14 08:59N 49°07' W 123°05'0 0.0
2018-Sep-14 08:29N 49°07' W 123°05'0 0.0
2018-Sep-14 08:02N 49°07' W 123°05'0 0.0
2018-Sep-14 07:59N 49°07' W 123°05'0 0.0
2018-Sep-14 07:29N 49°07' W 123°05'0 0.0
2018-Sep-14 07:02N 49°07' W 123°05'0 0.0
2018-Sep-14 06:59N 49°07' W 123°05'0 0.0
2018-Sep-14 06:29N 49°07' W 123°05'0 0.0
2018-Sep-14 06:02N 49°07' W 123°05'0 0.0
2018-Sep-14 05:59N 49°07' W 123°05'0 0.0
2018-Sep-14 05:29N 49°07' W 123°05'0 0.0
2018-Sep-14 05:02N 49°07' W 123°05'0 0.0
2018-Sep-14 04:56N 49°07' W 123°05'0 0.0
2018-Sep-14 04:26N 49°07' W 123°05'0 0.0
2018-Sep-14 04:02N 49°07' W 123°05'0 0.0
2018-Sep-14 03:59N 49°07' W 123°05'0 0.0
2018-Sep-14 03:29N 49°07' W 123°05'0 0.0
2018-Sep-14 03:02N 49°07' W 123°05'0 0.0
2018-Sep-14 02:59N 49°07' W 123°05'0 0.0
2018-Sep-14 02:29N 49°07' W 123°05'0 0.0
2018-Sep-14 02:02N 49°07' W 123°05'0 0.0
2018-Sep-14 01:59N 49°07' W 123°05'0 0.0
2018-Sep-14 01:29N 49°07' W 123°05'0 0.0
2018-Sep-14 01:02N 49°07' W 123°05'0 0.0
2018-Sep-14 00:59N 49°07' W 123°05'0 0.0
2018-Sep-14 00:29N 49°07' W 123°05'0 0.0
2018-Sep-14 00:02N 49°07' W 123°05'0 0.0
2018-Sep-13 23:59N 49°07' W 123°05'0 0.0
2018-Sep-13 23:29N 49°07' W 123°05'0 0.0
2018-Sep-13 23:02N 49°07' W 123°05'0 0.0
2018-Sep-13 22:59N 49°07' W 123°05'0 0.0
2018-Sep-13 22:29N 49°07' W 123°05'0 0.0
2018-Sep-13 22:02N 49°07' W 123°05'0 0.0
2018-Sep-13 21:59N 49°07' W 123°05'0 0.0
2018-Sep-13 21:29N 49°07' W 123°05'0 0.0
2018-Sep-13 21:02N 49°07' W 123°05'0 0.0
2018-Sep-13 20:59N 49°07' W 123°05'0 0.0
2018-Sep-13 20:29N 49°07' W 123°05'0 0.0
2018-Sep-13 20:02N 49°07' W 123°05'0 0.1
2018-Sep-13 19:59N 49°07' W 123°05'0 0.0
2018-Sep-13 19:29N 49°07' W 123°05'0 0.0
2018-Sep-13 19:02N 49°07' W 123°05'0 0.0
2018-Sep-13 18:59N 49°07' W 123°05'0 0.0
2018-Sep-13 18:29N 49°07' W 123°05'0 0.0
2018-Sep-13 18:02N 49°07' W 123°05'0 0.0
2018-Sep-13 17:59N 49°07' W 123°05'0 0.0
2018-Sep-13 17:29N 49°07' W 123°05'0 0.0
2018-Sep-13 17:02N 49°07' W 123°05'0 0.1
2018-Sep-13 16:59N 49°07' W 123°05'0 0.0
2018-Sep-13 16:29N 49°07' W 123°05'0 0.0
2018-Sep-13 16:02N 49°07' W 123°05'0 0.0
2018-Sep-13 15:59N 49°07' W 123°05'0 0.0
2018-Sep-13 15:29N 49°07' W 123°05'0 0.0
2018-Sep-13 15:02N 49°07' W 123°05'0 0.0
2018-Sep-13 14:59N 49°07' W 123°05'0 0.0
2018-Sep-13 14:02N 49°07' W 123°05'0 0.0
2018-Sep-13 13:59N 49°07' W 123°05'0 0.0
2018-Sep-13 13:29N 49°07' W 123°05'0 0.0
2018-Sep-13 13:02N 49°07' W 123°05'0 0.0
2018-Sep-13 12:59N 49°07' W 123°05'0 0.0
2018-Sep-13 12:29N 49°07' W 123°05'0 0.0
2018-Sep-13 11:59N 49°07' W 123°05'0 0.0
2018-Sep-13 11:29N 49°07' W 123°05'0 0.0
2018-Sep-13 11:02N 49°07' W 123°05'0 0.1
2018-Sep-13 10:59N 49°07' W 123°05'0 0.0
2018-Sep-13 10:29N 49°07' W 123°05'0 0.0
2018-Sep-13 10:02N 49°07' W 123°05'0 0.1
2018-Sep-13 09:59N 49°07' W 123°05'0 0.0
2018-Sep-13 09:29N 49°07' W 123°05'0 0.0
2018-Sep-13 09:02N 49°07' W 123°05'0 0.0
2018-Sep-13 08:59N 49°07' W 123°05'0 0.0
2018-Sep-13 08:29N 49°07' W 123°05'0 0.0
2018-Sep-13 08:02N 49°07' W 123°05'0 0.0
2018-Sep-13 07:59N 49°07' W 123°05'0 0.0
2018-Sep-13 07:29N 49°07' W 123°05'0 0.0
2018-Sep-13 07:02N 49°07' W 123°05'0 0.0
2018-Sep-13 06:59N 49°07' W 123°05'0 0.0
2018-Sep-13 06:29N 49°07' W 123°05'0 0.0
2018-Sep-13 06:02N 49°07' W 123°05'0 0.0
2018-Sep-13 05:59N 49°07' W 123°05'0 0.0
2018-Sep-13 05:29N 49°07' W 123°05'0 0.0
2018-Sep-13 05:02N 49°07' W 123°05'0 0.0
2018-Sep-13 04:59N 49°07' W 123°05'0 0.0
2018-Sep-13 04:29N 49°07' W 123°05'0 0.0
2018-Sep-13 04:02N 49°07' W 123°05'0 0.0
2018-Sep-13 03:59N 49°07' W 123°05'0 0.0
2018-Sep-13 03:29N 49°07' W 123°05'0 0.0
2018-Sep-13 03:02N 49°07' W 123°05'0 0.0
2018-Sep-13 02:59N 49°07' W 123°05'0 0.0
2018-Sep-13 02:29N 49°07' W 123°05'0 0.0
2018-Sep-13 02:02N 49°07' W 123°05'0 0.0
2018-Sep-13 01:59N 49°07' W 123°05'0 0.0
2018-Sep-13 01:29N 49°07' W 123°05'0 0.0
2018-Sep-13 01:02N 49°07' W 123°05'0 0.1
2018-Sep-13 00:59N 49°07' W 123°05'0 0.0
2018-Sep-13 00:29N 49°07' W 123°05'0 0.0
2018-Sep-13 00:02N 49°07' W 123°05'0 0.0
2018-Sep-12 23:59N 49°07' W 123°05'0 0.0
2018-Sep-12 23:29N 49°07' W 123°05'0 0.0
2018-Sep-12 23:02N 49°07' W 123°05'0 0.0
2018-Sep-12 22:59N 49°07' W 123°05'0 0.0
2018-Sep-12 22:29N 49°07' W 123°05'0 0.0
2018-Sep-12 22:02N 49°07' W 123°05'0 0.0
2018-Sep-12 21:59N 49°07' W 123°05'0 0.0
2018-Sep-12 21:29N 49°07' W 123°05'0 0.0
2018-Sep-12 21:02N 49°07' W 123°05'0 0.0
2018-Sep-12 20:59N 49°07' W 123°05'0 0.0
2018-Sep-12 20:29N 49°07' W 123°05'0 0.0
2018-Sep-12 20:02N 49°07' W 123°05'0 0.1
2018-Sep-12 19:59N 49°07' W 123°05'0 0.0
2018-Sep-12 19:29N 49°07' W 123°05'0 0.0
2018-Sep-12 19:02N 49°07' W 123°05'0 0.0
2018-Sep-12 18:59N 49°07' W 123°05'0 0.0
2018-Sep-12 18:29N 49°07' W 123°05'0 0.0
2018-Sep-12 18:02N 49°07' W 123°05'0 0.0
2018-Sep-12 17:59N 49°07' W 123°05'0 0.0
2018-Sep-12 17:29N 49°07' W 123°05'0 0.0
2018-Sep-12 17:02N 49°07' W 123°05'0 0.0
2018-Sep-12 16:59N 49°07' W 123°05'0 0.0
2018-Sep-12 16:29N 49°07' W 123°05'0 0.0
2018-Sep-12 16:02N 49°07' W 123°05'0 0.0
2018-Sep-12 15:59N 49°07' W 123°05'0 0.0
2018-Sep-12 15:29N 49°07' W 123°05'0 0.0
2018-Sep-12 15:02N 49°07' W 123°05'0 0.0
2018-Sep-12 14:59N 49°07' W 123°05'0 0.0
2018-Sep-12 13:59N 49°07' W 123°05'0 0.0
2018-Sep-12 13:29N 49°07' W 123°05'0 0.0
2018-Sep-12 13:02N 49°07' W 123°05'0 0.0
2018-Sep-12 12:59N 49°07' W 123°05'0 0.0
2018-Sep-12 12:29N 49°07' W 123°05'0 0.0
2018-Sep-12 11:59N 49°07' W 123°05'0 0.0
2018-Sep-12 11:29N 49°07' W 123°05'0 0.0
2018-Sep-12 11:02N 49°07' W 123°05'0 0.1
2018-Sep-12 10:59N 49°07' W 123°05'0 0.0
2018-Sep-12 10:29N 49°07' W 123°05'0 0.0
2018-Sep-12 10:02N 49°07' W 123°05'0 0.0
2018-Sep-12 09:59N 49°07' W 123°05'0 0.0
2018-Sep-12 09:29N 49°07' W 123°05'0 0.0
2018-Sep-12 09:02N 49°07' W 123°05'0 0.0
2018-Sep-12 08:59N 49°07' W 123°05'0 0.0
2018-Sep-12 08:29N 49°07' W 123°05'0 0.0
2018-Sep-12 08:02N 49°07' W 123°05'0 0.0
2018-Sep-12 07:59N 49°07' W 123°05'0 0.0
2018-Sep-12 07:29N 49°07' W 123°05'0 0.0
2018-Sep-12 07:02N 49°07' W 123°05'0 0.0
2018-Sep-12 06:59N 49°07' W 123°05'0 0.0
2018-Sep-12 06:26N 49°07' W 123°05'0 0.0
2018-Sep-12 06:02N 49°07' W 123°05'0 0.0
2018-Sep-12 05:59N 49°07' W 123°05'0 0.0
2018-Sep-12 05:29N 49°07' W 123°05'0 0.0
2018-Sep-12 05:02N 49°07' W 123°05'0 0.0
2018-Sep-12 04:59N 49°07' W 123°05'0 0.0
2018-Sep-12 04:29N 49°07' W 123°05'0 0.0
2018-Sep-12 04:02N 49°07' W 123°05'0 0.0
2018-Sep-12 03:59N 49°07' W 123°05'0 0.0
2018-Sep-12 03:29N 49°07' W 123°05'0 0.0
2018-Sep-12 03:02N 49°07' W 123°05'0 0.0
2018-Sep-12 02:56N 49°07' W 123°05'0 0.0
2018-Sep-12 02:29N 49°07' W 123°05'0 0.0
2018-Sep-12 01:59N 49°07' W 123°05'0 0.0
2018-Sep-12 01:29N 49°07' W 123°05'0 0.0
2018-Sep-12 00:59N 49°07' W 123°05'0 0.0
2018-Sep-12 00:29N 49°07' W 123°05'0 0.0
2018-Sep-12 00:02N 49°07' W 123°05'0 0.0
2018-Sep-11 23:59N 49°07' W 123°05'0 0.0
2018-Sep-11 23:29N 49°07' W 123°05'0 0.0
2018-Sep-11 23:02N 49°07' W 123°05'0 0.0
2018-Sep-11 22:59N 49°07' W 123°05'0 0.0
2018-Sep-11 22:29N 49°07' W 123°05'0 0.0
2018-Sep-11 22:02N 49°07' W 123°05'0 0.0
2018-Sep-11 21:59N 49°07' W 123°05'0 0.0
2018-Sep-11 21:29N 49°07' W 123°05'0 0.0
2018-Sep-11 20:59N 49°07' W 123°05'0 0.0
2018-Sep-11 20:29N 49°07' W 123°05'0 0.0
2018-Sep-11 19:59N 49°07' W 123°05'0 0.0
2018-Sep-11 19:29N 49°07' W 123°05'0 0.0
2018-Sep-11 19:02N 49°07' W 123°05'0 0.0
2018-Sep-11 18:59N 49°07' W 123°05'0 0.0
2018-Sep-11 18:29N 49°07' W 123°05'0 0.0
2018-Sep-11 18:02N 49°07' W 123°05'0 0.0
2018-Sep-11 17:59N 49°07' W 123°05'0 0.0
2018-Sep-11 17:29N 49°07' W 123°05'0 0.0
2018-Sep-11 17:02N 49°07' W 123°05'0 0.0
2018-Sep-11 16:59N 49°07' W 123°05'0 0.0
2018-Sep-11 16:29N 49°07' W 123°05'0 0.0
2018-Sep-11 16:02N 49°07' W 123°05'0 0.0
2018-Sep-11 15:59N 49°07' W 123°05'0 0.0
2018-Sep-11 15:29N 49°07' W 123°05'0 0.0
2018-Sep-11 15:02N 49°07' W 123°05'0 0.0
2018-Sep-11 14:59N 49°07' W 123°05'0 0.0
2018-Sep-11 14:29N 49°07' W 123°05'0 0.0
2018-Sep-11 13:59N 49°07' W 123°05'0 0.0
2018-Sep-11 13:29N 49°07' W 123°05'0 0.0
2018-Sep-11 13:02N 49°07' W 123°05'0 0.0
2018-Sep-11 12:59N 49°07' W 123°05'0 0.0
2018-Sep-11 12:29N 49°07' W 123°05'0 0.0
2018-Sep-11 12:02N 49°07' W 123°05'0 0.0
2018-Sep-11 11:59N 49°07' W 123°05'0 0.0
2018-Sep-11 11:29N 49°07' W 123°05'0 0.0
2018-Sep-11 11:02N 49°07' W 123°05'0 0.0
2018-Sep-11 10:59N 49°07' W 123°05'0 0.0
2018-Sep-11 10:29N 49°07' W 123°05'0 0.0
2018-Sep-11 10:02N 49°07' W 123°05'0 0.0
2018-Sep-11 09:59N 49°07' W 123°05'0 0.0
2018-Sep-11 09:29N 49°07' W 123°05'0 0.0
2018-Sep-11 09:02N 49°07' W 123°05'0 0.0
2018-Sep-11 08:59N 49°07' W 123°05'0 0.0
2018-Sep-11 08:29N 49°07' W 123°05'0 0.0
2018-Sep-11 08:02N 49°07' W 123°05'0 0.0
2018-Sep-11 07:59N 49°07' W 123°05'0 0.0
2018-Sep-11 07:29N 49°07' W 123°05'0 0.0
2018-Sep-11 07:02N 49°07' W 123°05'0 0.0
2018-Sep-11 06:59N 49°07' W 123°05'0 0.0
2018-Sep-11 06:29N 49°07' W 123°05'0 0.0
2018-Sep-11 06:02N 49°07' W 123°05'0 0.0
2018-Sep-11 05:59N 49°07' W 123°05'0 0.0
2018-Sep-11 05:26N 49°07' W 123°05'0 0.0
2018-Sep-11 04:59N 49°07' W 123°05'0 0.0
2018-Sep-11 04:29N 49°07' W 123°05'0 0.0
2018-Sep-11 04:02N 49°07' W 123°05'0 0.0
2018-Sep-11 03:59N 49°07' W 123°05'0 0.0
2018-Sep-11 03:29N 49°07' W 123°05'0 0.0
2018-Sep-11 03:02N 49°07' W 123°05'0 0.0
2018-Sep-11 02:59N 49°07' W 123°05'0 0.0
2018-Sep-11 02:29N 49°07' W 123°05'0 0.0
2018-Sep-11 02:02N 49°07' W 123°05'0 0.0
2018-Sep-11 01:59N 49°07' W 123°05'0 0.0
2018-Sep-11 01:29N 49°07' W 123°05'0 0.0
2018-Sep-11 00:59N 49°07' W 123°05'0 0.0
2018-Sep-11 00:29N 49°07' W 123°05'0 0.0
2018-Sep-11 00:02N 49°07' W 123°05'0 0.0
2018-Sep-10 23:59N 49°07' W 123°05'0 0.0
2018-Sep-10 23:29N 49°07' W 123°05'0 0.0
2018-Sep-10 23:02N 49°07' W 123°05'0 0.0
2018-Sep-10 22:59N 49°07' W 123°05'0 0.0
2018-Sep-10 22:29N 49°07' W 123°05'0 0.0
2018-Sep-10 22:02N 49°07' W 123°05'0 0.0
2018-Sep-10 21:59N 49°07' W 123°05'0 0.0
2018-Sep-10 21:29N 49°07' W 123°05'0 0.0
2018-Sep-10 21:02N 49°07' W 123°05'0 0.0
2018-Sep-10 20:59N 49°07' W 123°05'0 0.0
2018-Sep-10 20:29N 49°07' W 123°05'0 0.0
2018-Sep-10 20:02N 49°07' W 123°05'0 0.0
2018-Sep-10 19:59N 49°07' W 123°05'0 0.0
2018-Sep-10 19:29N 49°07' W 123°05'0 0.0
2018-Sep-10 19:02N 49°07' W 123°05'0 0.0
2018-Sep-10 18:59N 49°07' W 123°05'0 0.0
2018-Sep-10 18:29N 49°07' W 123°05'0 0.0
2018-Sep-10 18:02N 49°07' W 123°05'0 0.0
2018-Sep-10 17:59N 49°07' W 123°05'0 0.0
2018-Sep-10 17:29N 49°07' W 123°05'0 0.0
2018-Sep-10 17:02N 49°07' W 123°05'0 0.0
2018-Sep-10 16:59N 49°07' W 123°05'0 0.0
2018-Sep-10 16:29N 49°07' W 123°05'0 0.0
2018-Sep-10 16:02N 49°07' W 123°05'0 0.0
2018-Sep-10 15:59N 49°07' W 123°05'0 0.0
2018-Sep-10 15:29N 49°07' W 123°05'0 0.0
2018-Sep-10 15:02N 49°07' W 123°05'0 0.0
2018-Sep-10 14:59N 49°07' W 123°05'  
Track history (hours):
 
Tides and Currents Weather Stations Pressure Air Temp Water Temp Dewpoint Dewpoint Depression Visibility Wind Speed Wind Dir Waves Ship Positions

Spirit Of Vi

Last reported at 2018-Sep-18 19:19 UTC. Time now 2018-Sep-22 07:59 UTC.
Position N 26°31' W 114°56'.

Length 168 m; draft 5 m.

Type: Ship. MMSI: 316001269.

Date/timePositionNaut miles runAvg speedWind from/ knotsBaromVisibWave heightAir tempDewpointWater temp
2018-Sep-18 19:19N 26°31' W 114°56'516.7
2018-Sep-18 19:02N 26°34' W 114°59'016.2
2018-Sep-18 19:00N 26°35' W 114°59'1016.8
2018-Sep-18 18:24N 26°43' W 115°06'616.9
2018-Sep-18 18:03N 26°47' W 115°10'116.6
2018-Sep-18 18:00N 26°48' W 115°11'916.6
2018-Sep-18 17:29N 26°55' W 115°17'716.3
2018-Sep-18 17:03N 27°01' W 115°21'116.5
2018-Sep-18 17:00N 27°01' W 115°22'816.4
2018-Sep-18 16:30N 27°08' W 115°27'716.4
2018-Sep-18 16:03N 27°14' W 115°32'116.8
2018-Sep-18 16:00N 27°15' W 115°32'816.3
2018-Sep-18 15:30N 27°21' W 115°38'716.6
2018-Sep-18 15:03N 27°28' W 115°42'116.4
2018-Sep-18 15:00N 27°28' W 115°43'816.7
2018-Sep-18 14:30N 27°35' W 115°48'916.6
2018-Sep-18 13:58N 27°43' W 115°54'816.5
2018-Sep-18 13:29N 27°49' W 115°59'716.6
2018-Sep-18 13:03N 27°55' W 116°04'116.5
2018-Sep-18 12:59N 27°56' W 116°04'816.7
2018-Sep-18 12:29N 28°03' W 116°10'916.5
2018-Sep-18 11:57N 28°10' W 116°15'716.6
2018-Sep-18 11:30N 28°16' W 116°20'816.3
2018-Sep-18 11:02N 28°22' W 116°25'115.9
2018-Sep-18 11:00N 28°23' W 116°25'816.3
2018-Sep-18 10:30N 28°29' W 116°31'1116.5
2018-Sep-18 09:50N 28°39' W 116°38'616.5
2018-Sep-18 09:30N 28°43' W 116°41'716.6
2018-Sep-18 09:03N 28°49' W 116°46'116.3
2018-Sep-18 09:00N 28°50' W 116°47'816.6
2018-Sep-18 08:30N 28°57' W 116°52'716.7
2018-Sep-18 08:03N 29°03' W 116°57'116.3
2018-Sep-18 08:01N 29°04' W 116°57'814.7
2018-Sep-18 07:30N 29°10' W 117°02'512.4
2018-Sep-18 07:03N 29°15' W 117°05'117.3
2018-Sep-18 07:00N 29°15' W 117°06'1117.1
2018-Sep-18 06:22N 29°24' W 117°13'517.2
2018-Sep-18 06:03N 29°29' W 117°17'117.2
2018-Sep-18 06:00N 29°29' W 117°17'917.1
2018-Sep-18 05:30N 29°36' W 117°23'817.1
2018-Sep-18 05:03N 29°42' W 117°28'117.1
2018-Sep-18 05:00N 29°43' W 117°29'817.0
2018-Sep-18 04:30N 29°50' W 117°35'816.8
2018-Sep-18 04:03N 29°56' W 117°40'116.4
2018-Sep-18 04:01N 29°56' W 117°41'816.9
2018-Sep-18 03:30N 30°03' W 117°46'817.0
2018-Sep-18 03:03N 30°10' W 117°51'116.8
2018-Sep-18 03:01N 30°10' W 117°52'816.9
2018-Sep-18 02:31N 30°17' W 117°57'816.9
2018-Sep-18 02:03N 30°24' W 118°02'117.1
2018-Sep-18 02:01N 30°24' W 118°03'816.8
2018-Sep-18 01:31N 30°31' W 118°08'716.6
2018-Sep-18 01:03N 30°37' W 118°13'116.2
2018-Sep-18 01:01N 30°38' W 118°14'816.8
2018-Sep-18 00:30N 30°45' W 118°19'816.9
2018-Sep-18 00:03N 30°51' W 118°24'116.4
2018-Sep-18 00:01N 30°52' W 118°25'816.7
2018-Sep-17 23:31N 30°59' W 118°31'716.6
2018-Sep-17 23:04N 31°05' W 118°35'116.4
2018-Sep-17 23:00N 31°06' W 118°36'816.8
2018-Sep-17 22:31N 31°13' W 118°42'816.8
2018-Sep-17 22:03N 31°19' W 118°47'116.5
2018-Sep-17 22:01N 31°19' W 118°47'816.4
2018-Sep-17 21:30N 31°26' W 118°53'716.4
2018-Sep-17 21:03N 31°32' W 118°58'116.3
2018-Sep-17 21:00N 31°33' W 118°58'816.5
2018-Sep-17 20:30N 31°40' W 119°04'716.7
2018-Sep-17 20:03N 31°46' W 119°09'116.9
2018-Sep-17 20:00N 31°46' W 119°10'816.6
2018-Sep-17 19:31N 31°53' W 119°15'716.6
2018-Sep-17 19:04N 31°59' W 119°20'116.7
2018-Sep-17 19:01N 32°00' W 119°21'917.0
2018-Sep-17 18:30N 32°07' W 119°26'816.9
2018-Sep-17 18:04N 32°14' W 119°31'116.9
2018-Sep-17 18:00N 32°14' W 119°31'816.9
2018-Sep-17 17:30N 32°22' W 119°36'716.7
2018-Sep-17 17:03N 32°27' W 119°42'116.8
2018-Sep-17 17:01N 32°28' W 119°43'916.8
2018-Sep-17 16:29N 32°35' W 119°50'716.9
2018-Sep-17 16:03N 32°40' W 119°55'116.7
2018-Sep-17 16:00N 32°41' W 119°56'1116.8
2018-Sep-17 15:23N 32°48' W 120°05'516.4
2018-Sep-17 15:03N 32°52' W 120°09'115.9
2018-Sep-17 15:00N 32°53' W 120°08'714.0
2018-Sep-17 14:29N 33°00' W 120°09'816.6
2018-Sep-17 14:00N 33°07' W 120°14'816.8
2018-Sep-17 13:30N 33°14' W 120°19'816.9
2018-Sep-17 13:03N 33°21' W 120°24'117.1
2018-Sep-17 13:00N 33°21' W 120°24'816.8
2018-Sep-17 12:30N 33°28' W 120°31'816.9
2018-Sep-17 12:03N 33°34' W 120°36'116.7
2018-Sep-17 12:01N 33°35' W 120°37'816.9
2018-Sep-17 11:31N 33°41' W 120°43'816.7
2018-Sep-17 11:03N 33°49' W 120°45'117.2
2018-Sep-17 11:00N 33°50' W 120°45'917.3
2018-Sep-17 10:31N 33°57' W 120°51'817.6
2018-Sep-17 10:03N 34°04' W 120°56'117.1
2018-Sep-17 10:00N 34°04' W 120°56'917.2
2018-Sep-17 09:30N 34°12' W 121°02'817.2
2018-Sep-17 09:03N 34°18' W 121°07'117.4
2018-Sep-17 09:01N 34°19' W 121°07'917.1
2018-Sep-17 08:30N 34°26' W 121°13'817.2
2018-Sep-17 08:03N 34°33' W 121°18'117.1
2018-Sep-17 08:01N 34°34' W 121°18'917.0
2018-Sep-17 07:31N 34°41' W 121°24'816.9
2018-Sep-17 07:03N 34°47' W 121°29'116.9
2018-Sep-17 07:00N 34°48' W 121°29'917.2
2018-Sep-17 06:30N 34°55' W 121°35'817.1
2018-Sep-17 06:03N 35°02' W 121°40'117.0
2018-Sep-17 06:00N 35°02' W 121°41'816.9
2018-Sep-17 05:30N 35°09' W 121°47'817.3
2018-Sep-17 05:03N 35°16' W 121°51'117.4
2018-Sep-17 05:00N 35°17' W 121°52'917.2
2018-Sep-17 04:30N 35°24' W 121°57'817.1
2018-Sep-17 04:03N 35°31' W 122°02'117.5
2018-Sep-17 04:01N 35°32' W 122°03'917.2
2018-Sep-17 03:30N 35°39' W 122°08'817.3
2018-Sep-17 03:03N 35°46' W 122°13'117.2
2018-Sep-17 03:00N 35°46' W 122°14'917.3
2018-Sep-17 02:30N 35°54' W 122°19'817.4
2018-Sep-17 02:03N 36°00' W 122°24'117.5
2018-Sep-17 02:00N 36°01' W 122°25'917.5
2018-Sep-17 01:30N 36°08' W 122°31'818.3
2018-Sep-17 01:03N 36°15' W 122°37'118.0
2018-Sep-17 01:00N 36°16' W 122°37'917.8
2018-Sep-17 00:30N 36°23' W 122°43'817.6
2018-Sep-17 00:03N 36°30' W 122°48'117.6
2018-Sep-17 00:01N 36°31' W 122°48'917.2
2018-Sep-16 23:30N 36°38' W 122°54'917.4
2018-Sep-16 22:59N 36°46' W 122°60'917.5
2018-Sep-16 22:29N 36°54' W 123°06'717.1
2018-Sep-16 22:03N 36°60' W 123°11'117.1
2018-Sep-16 22:00N 37°01' W 123°11'817.0
2018-Sep-16 21:30N 37°08' W 123°17'816.9
2018-Sep-16 21:03N 37°14' W 123°22'116.6
2018-Sep-16 21:00N 37°15' W 123°23'916.8
2018-Sep-16 20:29N 37°22' W 123°28'816.8
2018-Sep-16 20:02N 37°29' W 123°33'116.9
2018-Sep-16 20:00N 37°29' W 123°34'1016.5
2018-Sep-16 19:25N 37°38' W 123°40'616.5
2018-Sep-16 19:03N 37°43' W 123°43'116.9
2018-Sep-16 18:58N 37°44' W 123°44'816.9
2018-Sep-16 18:30N 37°51' W 123°49'816.9
2018-Sep-16 18:03N 37°57' W 123°54'117.4
2018-Sep-16 18:00N 37°58' W 123°55'917.6
2018-Sep-16 17:30N 38°05' W 124°01'817.5
2018-Sep-16 17:03N 38°12' W 124°06'117.1
2018-Sep-16 17:00N 38°13' W 124°07'816.6
2018-Sep-16 16:30N 38°20' W 124°12'43316.5
2018-Sep-15 14:12N 45°30' W 125°16'0 0.4
2018-Sep-15 13:54N 45°30' W 125°16'716.2
2018-Sep-15 13:29N 45°37' W 125°16'816.5
2018-Sep-15 13:00N 45°45' W 125°16'1116.3
2018-Sep-15 12:18N 45°56' W 125°17'415.9
2018-Sep-15 12:04N 46°00' W 125°16'116.2
2018-Sep-15 12:00N 46°01' W 125°16'815.9
2018-Sep-15 11:30N 46°09' W 125°16'715.8
2018-Sep-15 11:03N 46°16' W 125°17'115.9
2018-Sep-15 11:00N 46°17' W 125°17'815.6
2018-Sep-15 10:30N 46°25' W 125°16'715.7
2018-Sep-15 10:03N 46°32' W 125°16'115.8
2018-Sep-15 10:00N 46°32' W 125°16'815.9
2018-Sep-15 09:30N 46°40' W 125°16'715.7
2018-Sep-15 09:03N 46°48' W 125°16'115.7
2018-Sep-15 09:00N 46°48' W 125°16'815.8
2018-Sep-15 08:30N 46°56' W 125°16'7015.9
2018-Sep-15 04:04N 48°07' W 125°12'116.5
2018-Sep-15 04:02N 48°07' W 125°11'716.6
2018-Sep-15 03:35N 48°14' W 125°10'216.5
2018-Sep-15 03:28N 48°16' W 125°09'716.1
2018-Sep-15 03:03N 48°23' W 125°08'115.4
2018-Sep-15 03:00N 48°24' W 125°08'815.5
2018-Sep-15 02:30N 48°30' W 125°01'614.4
2018-Sep-15 02:03N 48°30' W 124°51'115.4
2018-Sep-15 02:00N 48°30' W 124°50'815.6
2018-Sep-15 01:30N 48°29' W 124°38'715.7
2018-Sep-15 01:03N 48°26' W 124°28'115.7
2018-Sep-15 01:00N 48°26' W 124°27'815.4
2018-Sep-15 00:31N 48°23' W 124°17'715.5
2018-Sep-15 00:03N 48°20' W 124°07'116.0
2018-Sep-15 00:00N 48°20' W 124°06'815.5
2018-Sep-14 23:30N 48°17' W 123°55'1616.4
2018-Sep-14 22:31N 48°16' W 123°31'115.8
2018-Sep-14 22:29N 48°16' W 123°30'715.4
2018-Sep-14 22:03N 48°22' W 123°25'115.2
2018-Sep-14 22:00N 48°23' W 123°25'612.7
2018-Sep-14 21:31N 48°24' W 123°15'714.8
2018-Sep-14 21:04N 48°30' W 123°13'117.3
2018-Sep-14 21:01N 48°31' W 123°13'918.1
2018-Sep-14 20:31N 48°40' W 123°15'817.5
2018-Sep-14 20:03N 48°45' W 123°06'119.5
2018-Sep-14 20:00N 48°45' W 123°05'713.6
2018-Sep-14 19:30N 48°52' W 123°06'819.0
2018-Sep-14 19:04N 48°58' W 123°15'118.7
2018-Sep-14 19:00N 48°59' W 123°16'714.4
2018-Sep-14 18:30N 49°05' W 123°22'613.2
2018-Sep-14 18:03N 49°08' W 123°14'114.7
2018-Sep-14 18:00N 49°08' W 123°13'510.0
2018-Sep-14 17:29N 49°07' W 123°05'0 0.6
2018-Sep-14 17:02N 49°07' W 123°05'0 0.1
2018-Sep-14 16:59N 49°07' W 123°05'0 0.0
2018-Sep-14 16:29N 49°07' W 123°05'0 0.0
2018-Sep-14 16:02N 49°07' W 123°05'0 0.0
2018-Sep-14 15:59N 49°07' W 123°05'0 0.0
2018-Sep-14 15:29N 49°07' W 123°05'0 0.0
2018-Sep-14 15:02N 49°07' W 123°05'0 0.0
2018-Sep-14 14:59N 49°07' W 123°05'0 0.0
2018-Sep-14 14:29N 49°07' W 123°05'0 0.0
2018-Sep-14 13:59N 49°07' W 123°05'0 0.0
2018-Sep-14 13:29N 49°07' W 123°05'0 0.0
2018-Sep-14 13:02N 49°07' W 123°05'0 0.0
2018-Sep-14 12:59N 49°07' W 123°05'0 0.0
2018-Sep-14 12:29N 49°07' W 123°05'0 0.0
2018-Sep-14 12:02N 49°07' W 123°05'0 0.0
2018-Sep-14 11:59N 49°07' W 123°05'0 0.0
2018-Sep-14 11:29N 49°07' W 123°05'0 0.0
2018-Sep-14 11:02N 49°07' W 123°05'0 0.0
2018-Sep-14 10:59N 49°07' W 123°05'0 0.0
2018-Sep-14 10:29N 49°07' W 123°05'0 0.0
2018-Sep-14 10:02N 49°07' W 123°05'0 0.0
2018-Sep-14 09:59N 49°07' W 123°05'0 0.0
2018-Sep-14 09:29N 49°07' W 123°05'0 0.0
2018-Sep-14 09:02N 49°07' W 123°05'0 0.0
2018-Sep-14 08:59N 49°07' W 123°05'0 0.0
2018-Sep-14 08:29N 49°07' W 123°05'0 0.0
2018-Sep-14 08:02N 49°07' W 123°05'0 0.0
2018-Sep-14 07:59N 49°07' W 123°05'0 0.0
2018-Sep-14 07:29N 49°07' W 123°05'0 0.0
2018-Sep-14 07:02N 49°07' W 123°05'0 0.0
2018-Sep-14 06:59N 49°07' W 123°05'0 0.0
2018-Sep-14 06:29N 49°07' W 123°05'0 0.0
2018-Sep-14 06:02N 49°07' W 123°05'0 0.0
2018-Sep-14 05:59N 49°07' W 123°05'0 0.0
2018-Sep-14 05:29N 49°07' W 123°05'0 0.0
2018-Sep-14 05:02N 49°07' W 123°05'0 0.0
2018-Sep-14 04:56N 49°07' W 123°05'0 0.0
2018-Sep-14 04:26N 49°07' W 123°05'0 0.0
2018-Sep-14 04:02N 49°07' W 123°05'0 0.0
2018-Sep-14 03:59N 49°07' W 123°05'0 0.0
2018-Sep-14 03:29N 49°07' W 123°05'0 0.0
2018-Sep-14 03:02N 49°07' W 123°05'0 0.0
2018-Sep-14 02:59N 49°07' W 123°05'0 0.0
2018-Sep-14 02:29N 49°07' W 123°05'0 0.0
2018-Sep-14 02:02N 49°07' W 123°05'0 0.0
2018-Sep-14 01:59N 49°07' W 123°05'0 0.0
2018-Sep-14 01:29N 49°07' W 123°05'0 0.0
2018-Sep-14 01:02N 49°07' W 123°05'0 0.0
2018-Sep-14 00:59N 49°07' W 123°05'0 0.0
2018-Sep-14 00:29N 49°07' W 123°05'0 0.0
2018-Sep-14 00:02N 49°07' W 123°05'0 0.0
2018-Sep-13 23:59N 49°07' W 123°05'0 0.0
2018-Sep-13 23:29N 49°07' W 123°05'0 0.0
2018-Sep-13 23:02N 49°07' W 123°05'0 0.0
2018-Sep-13 22:59N 49°07' W 123°05'0 0.0
2018-Sep-13 22:29N 49°07' W 123°05'0 0.0
2018-Sep-13 22:02N 49°07' W 123°05'0 0.0
2018-Sep-13 21:59N 49°07' W 123°05'0 0.0
2018-Sep-13 21:29N 49°07' W 123°05'0 0.0
2018-Sep-13 21:02N 49°07' W 123°05'0 0.0
2018-Sep-13 20:59N 49°07' W 123°05'0 0.0
2018-Sep-13 20:29N 49°07' W 123°05'0 0.0
2018-Sep-13 20:02N 49°07' W 123°05'0 0.1
2018-Sep-13 19:59N 49°07' W 123°05'0 0.0
2018-Sep-13 19:29N 49°07' W 123°05'0 0.0
2018-Sep-13 19:02N 49°07' W 123°05'0 0.0
2018-Sep-13 18:59N 49°07' W 123°05'0 0.0
2018-Sep-13 18:29N 49°07' W 123°05'0 0.0
2018-Sep-13 18:02N 49°07' W 123°05'0 0.0
2018-Sep-13 17:59N 49°07' W 123°05'0 0.0
2018-Sep-13 17:29N 49°07' W 123°05'0 0.0
2018-Sep-13 17:02N 49°07' W 123°05'0 0.1
2018-Sep-13 16:59N 49°07' W 123°05'0 0.0
2018-Sep-13 16:29N 49°07' W 123°05'0 0.0
2018-Sep-13 16:02N 49°07' W 123°05'0 0.0
2018-Sep-13 15:59N 49°07' W 123°05'0 0.0
2018-Sep-13 15:29N 49°07' W 123°05'0 0.0
2018-Sep-13 15:02N 49°07' W 123°05'0 0.0
2018-Sep-13 14:59N 49°07' W 123°05'0 0.0
2018-Sep-13 14:02N 49°07' W 123°05'0 0.0
2018-Sep-13 13:59N 49°07' W 123°05'0 0.0
2018-Sep-13 13:29N 49°07' W 123°05'0 0.0
2018-Sep-13 13:02N 49°07' W 123°05'0 0.0
2018-Sep-13 12:59N 49°07' W 123°05'0 0.0
2018-Sep-13 12:29N 49°07' W 123°05'0 0.0
2018-Sep-13 11:59N 49°07' W 123°05'0 0.0
2018-Sep-13 11:29N 49°07' W 123°05'0 0.0
2018-Sep-13 11:02N 49°07' W 123°05'0 0.1
2018-Sep-13 10:59N 49°07' W 123°05'0 0.0
2018-Sep-13 10:29N 49°07' W 123°05'0 0.0
2018-Sep-13 10:02N 49°07' W 123°05'0 0.1
2018-Sep-13 09:59N 49°07' W 123°05'0 0.0
2018-Sep-13 09:29N 49°07' W 123°05'0 0.0
2018-Sep-13 09:02N 49°07' W 123°05'0 0.0
2018-Sep-13 08:59N 49°07' W 123°05'0 0.0
2018-Sep-13 08:29N 49°07' W 123°05'0 0.0
2018-Sep-13 08:02N 49°07' W 123°05'0 0.0
2018-Sep-13 07:59N 49°07' W 123°05'0 0.0
2018-Sep-13 07:29N 49°07' W 123°05'0 0.0
2018-Sep-13 07:02N 49°07' W 123°05'0 0.0
2018-Sep-13 06:59N 49°07' W 123°05'0 0.0
2018-Sep-13 06:29N 49°07' W 123°05'0 0.0
2018-Sep-13 06:02N 49°07' W 123°05'0 0.0
2018-Sep-13 05:59N 49°07' W 123°05'0 0.0
2018-Sep-13 05:29N 49°07' W 123°05'0 0.0
2018-Sep-13 05:02N 49°07' W 123°05'0 0.0
2018-Sep-13 04:59N 49°07' W 123°05'0 0.0
2018-Sep-13 04:29N 49°07' W 123°05'0 0.0
2018-Sep-13 04:02N 49°07' W 123°05'0 0.0
2018-Sep-13 03:59N 49°07' W 123°05'0 0.0
2018-Sep-13 03:29N 49°07' W 123°05'0 0.0
2018-Sep-13 03:02N 49°07' W 123°05'0 0.0
2018-Sep-13 02:59N 49°07' W 123°05'0 0.0
2018-Sep-13 02:29N 49°07' W 123°05'0 0.0
2018-Sep-13 02:02N 49°07' W 123°05'0 0.0
2018-Sep-13 01:59N 49°07' W 123°05'0 0.0
2018-Sep-13 01:29N 49°07' W 123°05'0 0.0
2018-Sep-13 01:02N 49°07' W 123°05'0 0.1
2018-Sep-13 00:59N 49°07' W 123°05'0 0.0
2018-Sep-13 00:29N 49°07' W 123°05'0 0.0
2018-Sep-13 00:02N 49°07' W 123°05'0 0.0
2018-Sep-12 23:59N 49°07' W 123°05'0 0.0
2018-Sep-12 23:29N 49°07' W 123°05'0 0.0
2018-Sep-12 23:02N 49°07' W 123°05'0 0.0
2018-Sep-12 22:59N 49°07' W 123°05'0 0.0
2018-Sep-12 22:29N 49°07' W 123°05'0 0.0
2018-Sep-12 22:02N 49°07' W 123°05'0 0.0
2018-Sep-12 21:59N 49°07' W 123°05'0 0.0
2018-Sep-12 21:29N 49°07' W 123°05'0 0.0
2018-Sep-12 21:02N 49°07' W 123°05'0 0.0
2018-Sep-12 20:59N 49°07' W 123°05'0 0.0
2018-Sep-12 20:29N 49°07' W 123°05'0 0.0
2018-Sep-12 20:02N 49°07' W 123°05'0 0.1
2018-Sep-12 19:59N 49°07' W 123°05'0 0.0
2018-Sep-12 19:29N 49°07' W 123°05'0 0.0
2018-Sep-12 19:02N 49°07' W 123°05'0 0.0
2018-Sep-12 18:59N 49°07' W 123°05'0 0.0
2018-Sep-12 18:29N 49°07' W 123°05'0 0.0
2018-Sep-12 18:02N 49°07' W 123°05'0 0.0
2018-Sep-12 17:59N 49°07' W 123°05'0 0.0
2018-Sep-12 17:29N 49°07' W 123°05'0 0.0
2018-Sep-12 17:02N 49°07' W 123°05'0 0.0
2018-Sep-12 16:59N 49°07' W 123°05'0 0.0
2018-Sep-12 16:29N 49°07' W 123°05'0 0.0
2018-Sep-12 16:02N 49°07' W 123°05'0 0.0
2018-Sep-12 15:59N 49°07' W 123°05'0 0.0
2018-Sep-12 15:29N 49°07' W 123°05'0 0.0
2018-Sep-12 15:02N 49°07' W 123°05'0 0.0
2018-Sep-12 14:59N 49°07' W 123°05'0 0.0
2018-Sep-12 13:59N 49°07' W 123°05'0 0.0
2018-Sep-12 13:29N 49°07' W 123°05'0 0.0
2018-Sep-12 13:02N 49°07' W 123°05'0 0.0
2018-Sep-12 12:59N 49°07' W 123°05'0 0.0
2018-Sep-12 12:29N 49°07' W 123°05'0 0.0
2018-Sep-12 11:59N 49°07' W 123°05'0 0.0
2018-Sep-12 11:29N 49°07' W 123°05'0 0.0
2018-Sep-12 11:02N 49°07' W 123°05'0 0.1
2018-Sep-12 10:59N 49°07' W 123°05'0 0.0
2018-Sep-12 10:29N 49°07' W 123°05'0 0.0
2018-Sep-12 10:02N 49°07' W 123°05'0 0.0
2018-Sep-12 09:59N 49°07' W 123°05'0 0.0
2018-Sep-12 09:29N 49°07' W 123°05'0 0.0
2018-Sep-12 09:02N 49°07' W 123°05'0 0.0
2018-Sep-12 08:59N 49°07' W 123°05'0 0.0
2018-Sep-12 08:29N 49°07' W 123°05'0 0.0
2018-Sep-12 08:02N 49°07' W 123°05'0 0.0
2018-Sep-12 07:59N 49°07' W 123°05'0 0.0
2018-Sep-12 07:29N 49°07' W 123°05'0 0.0
2018-Sep-12 07:02N 49°07' W 123°05'0 0.0
2018-Sep-12 06:59N 49°07' W 123°05'0 0.0
2018-Sep-12 06:26N 49°07' W 123°05'0 0.0
2018-Sep-12 06:02N 49°07' W 123°05'0 0.0
2018-Sep-12 05:59N 49°07' W 123°05'0 0.0
2018-Sep-12 05:29N 49°07' W 123°05'0 0.0
2018-Sep-12 05:02N 49°07' W 123°05'0 0.0
2018-Sep-12 04:59N 49°07' W 123°05'0 0.0
2018-Sep-12 04:29N 49°07' W 123°05'0 0.0
2018-Sep-12 04:02N 49°07' W 123°05'0 0.0
2018-Sep-12 03:59N 49°07' W 123°05'0 0.0
2018-Sep-12 03:29N 49°07' W 123°05'0 0.0
2018-Sep-12 03:02N 49°07' W 123°05'0 0.0
2018-Sep-12 02:56N 49°07' W 123°05'0 0.0
2018-Sep-12 02:29N 49°07' W 123°05'0 0.0
2018-Sep-12 01:59N 49°07' W 123°05'0 0.0
2018-Sep-12 01:29N 49°07' W 123°05'0 0.0
2018-Sep-12 00:59N 49°07' W 123°05'0 0.0
2018-Sep-12 00:29N 49°07' W 123°05'0 0.0
2018-Sep-12 00:02N 49°07' W 123°05'0 0.0
2018-Sep-11 23:59N 49°07' W 123°05'0 0.0
2018-Sep-11 23:29N 49°07' W 123°05'0 0.0
2018-Sep-11 23:02N 49°07' W 123°05'0 0.0
2018-Sep-11 22:59N 49°07' W 123°05'0 0.0
2018-Sep-11 22:29N 49°07' W 123°05'0 0.0
2018-Sep-11 22:02N 49°07' W 123°05'0 0.0
2018-Sep-11 21:59N 49°07' W 123°05'0 0.0
2018-Sep-11 21:29N 49°07' W 123°05'0 0.0
2018-Sep-11 20:59N 49°07' W 123°05'0 0.0
2018-Sep-11 20:29N 49°07' W 123°05'0 0.0
2018-Sep-11 19:59N 49°07' W 123°05'0 0.0
2018-Sep-11 19:29N 49°07' W 123°05'0 0.0
2018-Sep-11 19:02N 49°07' W 123°05'0 0.0
2018-Sep-11 18:59N 49°07' W 123°05'0 0.0
2018-Sep-11 18:29N 49°07' W 123°05'0 0.0
2018-Sep-11 18:02N 49°07' W 123°05'0 0.0
2018-Sep-11 17:59N 49°07' W 123°05'0 0.0
2018-Sep-11 17:29N 49°07' W 123°05'0 0.0
2018-Sep-11 17:02N 49°07' W 123°05'0 0.0
2018-Sep-11 16:59N 49°07' W 123°05'0 0.0
2018-Sep-11 16:29N 49°07' W 123°05'0 0.0
2018-Sep-11 16:02N 49°07' W 123°05'0 0.0
2018-Sep-11 15:59N 49°07' W 123°05'0 0.0
2018-Sep-11 15:29N 49°07' W 123°05'0 0.0
2018-Sep-11 15:02N 49°07' W 123°05'0 0.0
2018-Sep-11 14:59N 49°07' W 123°05'0 0.0
2018-Sep-11 14:29N 49°07' W 123°05'0 0.0
2018-Sep-11 13:59N 49°07' W 123°05'0 0.0
2018-Sep-11 13:29N 49°07' W 123°05'0 0.0
2018-Sep-11 13:02N 49°07' W 123°05'0 0.0
2018-Sep-11 12:59N 49°07' W 123°05'0 0.0
2018-Sep-11 12:29N 49°07' W 123°05'0 0.0
2018-Sep-11 12:02N 49°07' W 123°05'0 0.0
2018-Sep-11 11:59N 49°07' W 123°05'0 0.0
2018-Sep-11 11:29N 49°07' W 123°05'0 0.0
2018-Sep-11 11:02N 49°07' W 123°05'0 0.0
2018-Sep-11 10:59N 49°07' W 123°05'0 0.0
2018-Sep-11 10:29N 49°07' W 123°05'0 0.0
2018-Sep-11 10:02N 49°07' W 123°05'0 0.0
2018-Sep-11 09:59N 49°07' W 123°05'0 0.0
2018-Sep-11 09:29N 49°07' W 123°05'0 0.0
2018-Sep-11 09:02N 49°07' W 123°05'0 0.0
2018-Sep-11 08:59N 49°07' W 123°05'0 0.0
2018-Sep-11 08:29N 49°07' W 123°05'0 0.0
2018-Sep-11 08:02N 49°07' W 123°05'0 0.0
2018-Sep-11 07:59N 49°07' W 123°05'0 0.0
2018-Sep-11 07:29N 49°07' W 123°05'0 0.0
2018-Sep-11 07:02N 49°07' W 123°05'0 0.0
2018-Sep-11 06:59N 49°07' W 123°05'0 0.0
2018-Sep-11 06:29N 49°07' W 123°05'0 0.0
2018-Sep-11 06:02N 49°07' W 123°05'0 0.0
2018-Sep-11 05:59N 49°07' W 123°05'0 0.0
2018-Sep-11 05:26N 49°07' W 123°05'0 0.0
2018-Sep-11 04:59N 49°07' W 123°05'0 0.0
2018-Sep-11 04:29N 49°07' W 123°05'0 0.0
2018-Sep-11 04:02N 49°07' W 123°05'0 0.0
2018-Sep-11 03:59N 49°07' W 123°05'0 0.0
2018-Sep-11 03:29N 49°07' W 123°05'0 0.0
2018-Sep-11 03:02N 49°07' W 123°05'0 0.0
2018-Sep-11 02:59N 49°07' W 123°05'0 0.0
2018-Sep-11 02:29N 49°07' W 123°05'0 0.0
2018-Sep-11 02:02N 49°07' W 123°05'0 0.0
2018-Sep-11 01:59N 49°07' W 123°05'0 0.0
2018-Sep-11 01:29N 49°07' W 123°05'0 0.0
2018-Sep-11 00:59N 49°07' W 123°05'0 0.0
2018-Sep-11 00:29N 49°07' W 123°05'0 0.0
2018-Sep-11 00:02N 49°07' W 123°05'0 0.0
2018-Sep-10 23:59N 49°07' W 123°05'0 0.0
2018-Sep-10 23:29N 49°07' W 123°05'0 0.0
2018-Sep-10 23:02N 49°07' W 123°05'0 0.0
2018-Sep-10 22:59N 49°07' W 123°05'0 0.0
2018-Sep-10 22:29N 49°07' W 123°05'0 0.0
2018-Sep-10 22:02N 49°07' W 123°05'0 0.0
2018-Sep-10 21:59N 49°07' W 123°05'0 0.0
2018-Sep-10 21:29N 49°07' W 123°05'0 0.0
2018-Sep-10 21:02N 49°07' W 123°05'0 0.0
2018-Sep-10 20:59N 49°07' W 123°05'0 0.0
2018-Sep-10 20:29N 49°07' W 123°05'0 0.0
2018-Sep-10 20:02N 49°07' W 123°05'0 0.0
2018-Sep-10 19:59N 49°07' W 123°05'0 0.0
2018-Sep-10 19:29N 49°07' W 123°05'0 0.0
2018-Sep-10 19:02N 49°07' W 123°05'0 0.0
2018-Sep-10 18:59N 49°07' W 123°05'0 0.0
2018-Sep-10 18:29N 49°07' W 123°05'0 0.0
2018-Sep-10 18:02N 49°07' W 123°05'0 0.0
2018-Sep-10 17:59N 49°07' W 123°05'0 0.0
2018-Sep-10 17:29N 49°07' W 123°05'0 0.0
2018-Sep-10 17:02N 49°07' W 123°05'0 0.0
2018-Sep-10 16:59N 49°07' W 123°05'0 0.0
2018-Sep-10 16:29N 49°07' W 123°05'0 0.0
2018-Sep-10 16:02N 49°07' W 123°05'0 0.0
2018-Sep-10 15:59N 49°07' W 123°05'0 0.0
2018-Sep-10 15:29N 49°07' W 123°05'0 0.0
2018-Sep-10 15:02N 49°07' W 123°05'0 0.0
2018-Sep-10 14:59N 49°07' W 123°05'  

Dump ship's entire track history